sensor_id;sensor_type;location;lat;lon;timestamp;P1;durP1;ratioP1;P2;durP2;ratioP2
40863;SDS011;26582;47.524;19.012;2024-02-15T00:02:22;5.80;;;4.30;;
40863;SDS011;26582;47.524;19.012;2024-02-15T00:04:50;7.72;;;4.20;;
40863;SDS011;26582;47.524;19.012;2024-02-15T00:07:17;7.63;;;4.05;;
40863;SDS011;26582;47.524;19.012;2024-02-15T00:09:44;8.20;;;4.88;;
40863;SDS011;26582;47.524;19.012;2024-02-15T00:12:11;11.48;;;4.63;;
40863;SDS011;26582;47.524;19.012;2024-02-15T00:14:38;7.63;;;4.53;;
40863;SDS011;26582;47.524;19.012;2024-02-15T00:17:04;6.90;;;4.40;;
40863;SDS011;26582;47.524;19.012;2024-02-15T00:19:31;7.80;;;4.18;;
40863;SDS011;26582;47.524;19.012;2024-02-15T00:21:59;7.97;;;4.55;;
40863;SDS011;26582;47.524;19.012;2024-02-15T00:24:26;9.00;;;4.60;;
40863;SDS011;26582;47.524;19.012;2024-02-15T00:26:53;9.77;;;4.55;;
40863;SDS011;26582;47.524;19.012;2024-02-15T00:29:20;9.90;;;4.60;;
40863;SDS011;26582;47.524;19.012;2024-02-15T00:31:47;11.77;;;5.55;;
40863;SDS011;26582;47.524;19.012;2024-02-15T00:34:15;8.98;;;4.80;;
40863;SDS011;26582;47.524;19.012;2024-02-15T00:36:42;10.20;;;4.22;;
40863;SDS011;26582;47.524;19.012;2024-02-15T00:39:11;6.70;;;4.40;;
40863;SDS011;26582;47.524;19.012;2024-02-15T00:41:39;7.70;;;4.75;;
40863;SDS011;26582;47.524;19.012;2024-02-15T00:44:06;7.35;;;4.32;;
40863;SDS011;26582;47.524;19.012;2024-02-15T00:46:33;7.90;;;4.40;;
40863;SDS011;26582;47.524;19.012;2024-02-15T00:49:01;8.07;;;4.65;;
40863;SDS011;26582;47.524;19.012;2024-02-15T00:51:29;8.88;;;4.18;;
40863;SDS011;26582;47.524;19.012;2024-02-15T00:53:55;7.20;;;4.20;;
40863;SDS011;26582;47.524;19.012;2024-02-15T00:56:23;9.05;;;4.40;;
40863;SDS011;26582;47.524;19.012;2024-02-15T00:58:50;7.20;;;4.43;;
40863;SDS011;26582;47.524;19.012;2024-02-15T01:01:17;8.55;;;4.40;;
40863;SDS011;26582;47.524;19.012;2024-02-15T01:03:44;7.65;;;4.43;;
40863;SDS011;26582;47.524;19.012;2024-02-15T01:06:10;7.55;;;4.30;;
40863;SDS011;26582;47.524;19.012;2024-02-15T01:08:37;7.55;;;3.97;;
40863;SDS011;26582;47.524;19.012;2024-02-15T01:11:04;5.93;;;3.95;;
40863;SDS011;26582;47.524;19.012;2024-02-15T01:13:32;7.85;;;3.92;;
40863;SDS011;26582;47.524;19.012;2024-02-15T01:15:59;6.68;;;3.95;;
40863;SDS011;26582;47.524;19.012;2024-02-15T01:18:28;6.82;;;4.00;;
40863;SDS011;26582;47.524;19.012;2024-02-15T01:20:56;7.32;;;4.07;;
40863;SDS011;26582;47.524;19.012;2024-02-15T01:23:23;6.63;;;4.07;;
40863;SDS011;26582;47.524;19.012;2024-02-15T01:25:50;8.13;;;4.90;;
40863;SDS011;26582;47.524;19.012;2024-02-15T01:28:18;7.53;;;5.10;;
40863;SDS011;26582;47.524;19.012;2024-02-15T01:30:46;14.48;;;6.22;;
40863;SDS011;26582;47.524;19.012;2024-02-15T01:33:12;12.82;;;6.30;;
40863;SDS011;26582;47.524;19.012;2024-02-15T01:35:39;16.80;;;7.18;;
40863;SDS011;26582;47.524;19.012;2024-02-15T01:38:06;15.00;;;7.07;;
40863;SDS011;26582;47.524;19.012;2024-02-15T01:40:32;16.23;;;7.03;;
40863;SDS011;26582;47.524;19.012;2024-02-15T01:43:00;13.75;;;7.15;;
40863;SDS011;26582;47.524;19.012;2024-02-15T01:45:27;13.02;;;6.50;;
40863;SDS011;26582;47.524;19.012;2024-02-15T01:47:55;11.68;;;6.55;;
40863;SDS011;26582;47.524;19.012;2024-02-15T01:50:22;13.20;;;6.90;;
40863;SDS011;26582;47.524;19.012;2024-02-15T01:52:50;13.10;;;6.55;;
40863;SDS011;26582;47.524;19.012;2024-02-15T01:55:22;12.25;;;6.45;;
40863;SDS011;26582;47.524;19.012;2024-02-15T01:57:49;13.02;;;6.97;;
40863;SDS011;26582;47.524;19.012;2024-02-15T02:00:16;12.50;;;6.65;;
40863;SDS011;26582;47.524;19.012;2024-02-15T02:02:45;11.55;;;6.82;;
40863;SDS011;26582;47.524;19.012;2024-02-15T02:05:13;12.48;;;6.57;;
40863;SDS011;26582;47.524;19.012;2024-02-15T02:07:40;13.73;;;6.93;;
40863;SDS011;26582;47.524;19.012;2024-02-15T02:10:07;14.10;;;7.45;;
40863;SDS011;26582;47.524;19.012;2024-02-15T02:12:35;11.80;;;6.85;;
40863;SDS011;26582;47.524;19.012;2024-02-15T02:15:05;13.20;;;6.90;;
40863;SDS011;26582;47.524;19.012;2024-02-15T02:17:32;11.32;;;6.85;;
40863;SDS011;26582;47.524;19.012;2024-02-15T02:20:00;12.90;;;6.40;;
40863;SDS011;26582;47.524;19.012;2024-02-15T02:22:34;12.40;;;6.75;;
40863;SDS011;26582;47.524;19.012;2024-02-15T02:25:03;15.45;;;7.22;;
40863;SDS011;26582;47.524;19.012;2024-02-15T02:27:33;14.20;;;7.50;;
40863;SDS011;26582;47.524;19.012;2024-02-15T02:30:02;12.15;;;6.50;;
40863;SDS011;26582;47.524;19.012;2024-02-15T02:32:32;11.05;;;6.63;;
40863;SDS011;26582;47.524;19.012;2024-02-15T02:34:59;11.77;;;6.50;;
40863;SDS011;26582;47.524;19.012;2024-02-15T02:37:26;11.95;;;6.75;;
40863;SDS011;26582;47.524;19.012;2024-02-15T02:39:53;12.63;;;7.20;;
40863;SDS011;26582;47.524;19.012;2024-02-15T02:42:21;15.80;;;7.25;;
40863;SDS011;26582;47.524;19.012;2024-02-15T02:44:49;12.70;;;8.07;;
40863;SDS011;26582;47.524;19.012;2024-02-15T02:47:15;13.85;;;6.78;;
40863;SDS011;26582;47.524;19.012;2024-02-15T02:49:42;14.80;;;6.68;;
40863;SDS011;26582;47.524;19.012;2024-02-15T02:52:09;12.30;;;7.00;;
40863;SDS011;26582;47.524;19.012;2024-02-15T02:54:36;13.48;;;6.82;;
40863;SDS011;26582;47.524;19.012;2024-02-15T02:57:02;14.90;;;6.85;;
40863;SDS011;26582;47.524;19.012;2024-02-15T02:59:33;11.80;;;6.87;;
40863;SDS011;26582;47.524;19.012;2024-02-15T03:02:00;10.68;;;5.88;;
40863;SDS011;26582;47.524;19.012;2024-02-15T03:04:28;10.18;;;5.57;;
40863;SDS011;26582;47.524;19.012;2024-02-15T03:06:58;8.60;;;5.32;;
40863;SDS011;26582;47.524;19.012;2024-02-15T03:09:24;14.90;;;6.35;;
40863;SDS011;26582;47.524;19.012;2024-02-15T03:11:54;10.25;;;6.20;;
40863;SDS011;26582;47.524;19.012;2024-02-15T03:14:21;12.45;;;6.53;;
40863;SDS011;26582;47.524;19.012;2024-02-15T03:16:49;9.27;;;6.00;;
40863;SDS011;26582;47.524;19.012;2024-02-15T03:19:16;12.30;;;6.15;;
40863;SDS011;26582;47.524;19.012;2024-02-15T03:21:42;11.70;;;5.90;;
40863;SDS011;26582;47.524;19.012;2024-02-15T03:24:11;11.23;;;5.82;;
40863;SDS011;26582;47.524;19.012;2024-02-15T03:26:38;11.45;;;5.75;;
40863;SDS011;26582;47.524;19.012;2024-02-15T03:29:05;11.45;;;5.55;;
40863;SDS011;26582;47.524;19.012;2024-02-15T03:31:33;10.55;;;5.70;;
40863;SDS011;26582;47.524;19.012;2024-02-15T03:34:03;10.40;;;5.20;;
40863;SDS011;26582;47.524;19.012;2024-02-15T03:36:30;9.40;;;5.43;;
40863;SDS011;26582;47.524;19.012;2024-02-15T03:38:56;10.35;;;6.05;;
40863;SDS011;26582;47.524;19.012;2024-02-15T03:41:23;8.43;;;5.32;;
40863;SDS011;26582;47.524;19.012;2024-02-15T03:43:53;11.70;;;5.55;;
40863;SDS011;26582;47.524;19.012;2024-02-15T03:46:20;9.40;;;5.90;;
40863;SDS011;26582;47.524;19.012;2024-02-15T03:48:47;12.63;;;6.18;;
40863;SDS011;26582;47.524;19.012;2024-02-15T03:51:17;10.57;;;5.72;;
40863;SDS011;26582;47.524;19.012;2024-02-15T03:53:45;11.18;;;5.55;;
40863;SDS011;26582;47.524;19.012;2024-02-15T03:56:12;12.57;;;5.45;;
40863;SDS011;26582;47.524;19.012;2024-02-15T03:58:39;9.80;;;5.00;;
40863;SDS011;26582;47.524;19.012;2024-02-15T04:01:06;10.82;;;5.38;;
40863;SDS011;26582;47.524;19.012;2024-02-15T04:03:34;10.73;;;5.28;;
40863;SDS011;26582;47.524;19.012;2024-02-15T04:06:01;12.75;;;5.20;;
40863;SDS011;26582;47.524;19.012;2024-02-15T04:08:31;10.70;;;6.13;;
40863;SDS011;26582;47.524;19.012;2024-02-15T04:10:57;11.07;;;6.18;;
40863;SDS011;26582;47.524;19.012;2024-02-15T04:13:24;11.70;;;6.22;;
40863;SDS011;26582;47.524;19.012;2024-02-15T04:15:51;11.30;;;5.78;;
40863;SDS011;26582;47.524;19.012;2024-02-15T04:18:18;9.32;;;5.85;;
40863;SDS011;26582;47.524;19.012;2024-02-15T04:20:45;10.45;;;5.75;;
40863;SDS011;26582;47.524;19.012;2024-02-15T04:23:13;13.48;;;6.55;;
40863;SDS011;26582;47.524;19.012;2024-02-15T04:25:41;13.80;;;6.78;;
40863;SDS011;26582;47.524;19.012;2024-02-15T04:28:09;12.73;;;7.33;;
40863;SDS011;26582;47.524;19.012;2024-02-15T04:30:36;13.95;;;7.28;;
40863;SDS011;26582;47.524;19.012;2024-02-15T04:35:33;15.85;;;7.97;;
40863;SDS011;26582;47.524;19.012;2024-02-15T04:38:00;14.80;;;7.28;;
40863;SDS011;26582;47.524;19.012;2024-02-15T04:40:29;14.23;;;8.25;;
40863;SDS011;26582;47.524;19.012;2024-02-15T04:42:57;13.60;;;8.00;;
40863;SDS011;26582;47.524;19.012;2024-02-15T04:45:23;14.70;;;7.70;;
40863;SDS011;26582;47.524;19.012;2024-02-15T04:47:51;11.60;;;6.50;;
40863;SDS011;26582;47.524;19.012;2024-02-15T04:50:18;11.57;;;7.32;;
40863;SDS011;26582;47.524;19.012;2024-02-15T04:52:46;11.75;;;6.78;;
40863;SDS011;26582;47.524;19.012;2024-02-15T04:55:14;13.17;;;6.77;;
40863;SDS011;26582;47.524;19.012;2024-02-15T04:57:43;10.50;;;6.50;;
40863;SDS011;26582;47.524;19.012;2024-02-15T05:00:11;10.85;;;6.55;;
40863;SDS011;26582;47.524;19.012;2024-02-15T05:02:40;14.27;;;6.60;;
40863;SDS011;26582;47.524;19.012;2024-02-15T05:05:09;10.98;;;6.78;;
40863;SDS011;26582;47.524;19.012;2024-02-15T05:07:37;11.93;;;7.03;;
40863;SDS011;26582;47.524;19.012;2024-02-15T05:10:05;12.60;;;6.68;;
40863;SDS011;26582;47.524;19.012;2024-02-15T05:12:33;11.68;;;6.35;;
40863;SDS011;26582;47.524;19.012;2024-02-15T05:15:00;13.30;;;7.03;;
40863;SDS011;26582;47.524;19.012;2024-02-15T05:17:36;12.93;;;7.63;;
40863;SDS011;26582;47.524;19.012;2024-02-15T05:20:06;14.65;;;8.52;;
40863;SDS011;26582;47.524;19.012;2024-02-15T05:22:36;13.35;;;7.65;;
40863;SDS011;26582;47.524;19.012;2024-02-15T05:25:05;15.23;;;7.95;;
40863;SDS011;26582;47.524;19.012;2024-02-15T05:27:33;16.27;;;8.90;;
40863;SDS011;26582;47.524;19.012;2024-02-15T05:30:02;17.15;;;9.10;;
40863;SDS011;26582;47.524;19.012;2024-02-15T05:32:32;17.90;;;9.63;;
40863;SDS011;26582;47.524;19.012;2024-02-15T05:35:01;16.88;;;9.45;;
40863;SDS011;26582;47.524;19.012;2024-02-15T05:37:28;16.73;;;9.70;;
40863;SDS011;26582;47.524;19.012;2024-02-15T05:39:55;18.45;;;10.10;;
40863;SDS011;26582;47.524;19.012;2024-02-15T05:42:22;21.05;;;10.20;;
40863;SDS011;26582;47.524;19.012;2024-02-15T05:44:49;20.58;;;10.73;;
40863;SDS011;26582;47.524;19.012;2024-02-15T05:47:16;18.70;;;11.00;;
40863;SDS011;26582;47.524;19.012;2024-02-15T05:49:43;19.05;;;10.80;;
40863;SDS011;26582;47.524;19.012;2024-02-15T05:52:11;19.17;;;10.82;;
40863;SDS011;26582;47.524;19.012;2024-02-15T05:54:38;20.60;;;10.38;;
40863;SDS011;26582;47.524;19.012;2024-02-15T05:57:06;25.27;;;14.23;;
40863;SDS011;26582;47.524;19.012;2024-02-15T05:59:34;18.98;;;11.05;;
40863;SDS011;26582;47.524;19.012;2024-02-15T06:02:01;19.70;;;10.52;;
40863;SDS011;26582;47.524;19.012;2024-02-15T06:04:28;19.83;;;10.95;;
40863;SDS011;26582;47.524;19.012;2024-02-15T06:06:55;21.13;;;11.02;;
40863;SDS011;26582;47.524;19.012;2024-02-15T06:09:27;18.45;;;11.00;;
40863;SDS011;26582;47.524;19.012;2024-02-15T06:11:56;19.13;;;9.63;;
40863;SDS011;26582;47.524;19.012;2024-02-15T06:14:23;19.92;;;10.90;;
40863;SDS011;26582;47.524;19.012;2024-02-15T06:16:49;18.75;;;10.52;;
40863;SDS011;26582;47.524;19.012;2024-02-15T06:19:16;19.42;;;10.60;;
40863;SDS011;26582;47.524;19.012;2024-02-15T06:21:43;25.83;;;12.02;;
40863;SDS011;26582;47.524;19.012;2024-02-15T06:24:10;18.85;;;10.60;;
40863;SDS011;26582;47.524;19.012;2024-02-15T06:26:38;24.75;;;11.90;;
40863;SDS011;26582;47.524;19.012;2024-02-15T06:29:04;19.50;;;11.32;;
40863;SDS011;26582;47.524;19.012;2024-02-15T06:31:57;20.10;;;10.88;;
40863;SDS011;26582;47.524;19.012;2024-02-15T06:34:42;22.73;;;11.98;;
40863;SDS011;26582;47.524;19.012;2024-02-15T06:37:35;26.88;;;13.80;;
40863;SDS011;26582;47.524;19.012;2024-02-15T06:40:20;23.05;;;14.13;;
40863;SDS011;26582;47.524;19.012;2024-02-15T06:42:48;30.90;;;16.55;;
40863;SDS011;26582;47.524;19.012;2024-02-15T06:45:15;29.95;;;17.48;;
40863;SDS011;26582;47.524;19.012;2024-02-15T06:47:43;31.17;;;17.55;;
40863;SDS011;26582;47.524;19.012;2024-02-15T06:50:10;34.15;;;18.50;;
40863;SDS011;26582;47.524;19.012;2024-02-15T06:52:37;28.73;;;16.73;;
40863;SDS011;26582;47.524;19.012;2024-02-15T06:55:06;28.42;;;17.05;;
40863;SDS011;26582;47.524;19.012;2024-02-15T06:57:33;49.35;;;24.83;;
40863;SDS011;26582;47.524;19.012;2024-02-15T07:00:03;30.58;;;17.88;;
40863;SDS011;26582;47.524;19.012;2024-02-15T07:02:32;29.38;;;16.52;;
40863;SDS011;26582;47.524;19.012;2024-02-15T07:04:59;28.73;;;16.88;;
40863;SDS011;26582;47.524;19.012;2024-02-15T07:07:27;34.35;;;17.60;;
40863;SDS011;26582;47.524;19.012;2024-02-15T07:09:54;28.95;;;17.42;;
40863;SDS011;26582;47.524;19.012;2024-02-15T07:12:21;32.75;;;17.20;;
40863;SDS011;26582;47.524;19.012;2024-02-15T07:14:48;29.30;;;16.33;;
40863;SDS011;26582;47.524;19.012;2024-02-15T07:17:16;33.10;;;16.60;;
40863;SDS011;26582;47.524;19.012;2024-02-15T07:19:43;33.55;;;18.10;;
40863;SDS011;26582;47.524;19.012;2024-02-15T07:22:10;31.20;;;18.42;;
40863;SDS011;26582;47.524;19.012;2024-02-15T07:24:35;36.00;;;18.23;;
40863;SDS011;26582;47.524;19.012;2024-02-15T07:27:03;31.15;;;19.25;;
40863;SDS011;26582;47.524;19.012;2024-02-15T07:29:30;33.55;;;16.40;;
40863;SDS011;26582;47.524;19.012;2024-02-15T07:31:57;33.55;;;18.15;;
40863;SDS011;26582;47.524;19.012;2024-02-15T07:34:25;34.92;;;17.95;;
40863;SDS011;26582;47.524;19.012;2024-02-15T07:36:52;32.05;;;17.83;;
40863;SDS011;26582;47.524;19.012;2024-02-15T07:39:19;30.90;;;16.75;;
40863;SDS011;26582;47.524;19.012;2024-02-15T07:41:50;29.98;;;17.65;;
40863;SDS011;26582;47.524;19.012;2024-02-15T07:44:16;27.75;;;16.38;;
40863;SDS011;26582;47.524;19.012;2024-02-15T07:46:43;31.55;;;17.60;;
40863;SDS011;26582;47.524;19.012;2024-02-15T07:49:11;34.58;;;19.00;;
40863;SDS011;26582;47.524;19.012;2024-02-15T07:51:40;29.00;;;17.02;;
40863;SDS011;26582;47.524;19.012;2024-02-15T07:54:07;34.70;;;17.88;;
40863;SDS011;26582;47.524;19.012;2024-02-15T07:56:33;28.35;;;16.75;;
40863;SDS011;26582;47.524;19.012;2024-02-15T07:59:01;32.05;;;17.88;;
40863;SDS011;26582;47.524;19.012;2024-02-15T08:01:28;32.95;;;18.13;;
40863;SDS011;26582;47.524;19.012;2024-02-15T08:03:55;35.55;;;17.70;;
40863;SDS011;26582;47.524;19.012;2024-02-15T08:06:22;30.27;;;17.38;;
40863;SDS011;26582;47.524;19.012;2024-02-15T08:08:53;28.40;;;16.98;;
40863;SDS011;26582;47.524;19.012;2024-02-15T08:11:20;32.90;;;18.55;;
40863;SDS011;26582;47.524;19.012;2024-02-15T08:13:46;34.35;;;19.70;;
40863;SDS011;26582;47.524;19.012;2024-02-15T08:16:14;31.33;;;19.23;;
40863;SDS011;26582;47.524;19.012;2024-02-15T08:18:42;35.78;;;19.35;;
40863;SDS011;26582;47.524;19.012;2024-02-15T08:21:11;38.43;;;19.43;;
40863;SDS011;26582;47.524;19.012;2024-02-15T08:23:38;32.25;;;19.02;;
40863;SDS011;26582;47.524;19.012;2024-02-15T08:26:06;34.22;;;20.50;;
40863;SDS011;26582;47.524;19.012;2024-02-15T08:28:32;37.85;;;20.90;;
40863;SDS011;26582;47.524;19.012;2024-02-15T08:30:59;33.58;;;20.13;;
40863;SDS011;26582;47.524;19.012;2024-02-15T08:33:26;35.47;;;22.02;;
40863;SDS011;26582;47.524;19.012;2024-02-15T08:35:53;38.97;;;21.27;;
40863;SDS011;26582;47.524;19.012;2024-02-15T08:38:21;40.55;;;22.73;;
40863;SDS011;26582;47.524;19.012;2024-02-15T08:40:47;41.47;;;22.50;;
40863;SDS011;26582;47.524;19.012;2024-02-15T08:43:15;42.70;;;23.00;;
40863;SDS011;26582;47.524;19.012;2024-02-15T08:45:42;38.33;;;23.67;;
40863;SDS011;26582;47.524;19.012;2024-02-15T08:48:10;38.28;;;23.67;;
40863;SDS011;26582;47.524;19.012;2024-02-15T08:50:38;40.15;;;23.58;;
40863;SDS011;26582;47.524;19.012;2024-02-15T08:53:06;41.47;;;24.17;;
40863;SDS011;26582;47.524;19.012;2024-02-15T08:55:33;37.92;;;22.70;;
40863;SDS011;26582;47.524;19.012;2024-02-15T08:58:01;41.45;;;22.75;;
40863;SDS011;26582;47.524;19.012;2024-02-15T09:00:30;45.88;;;23.45;;
40863;SDS011;26582;47.524;19.012;2024-02-15T09:02:57;40.90;;;23.77;;
40863;SDS011;26582;47.524;19.012;2024-02-15T09:05:24;43.28;;;24.42;;
40863;SDS011;26582;47.524;19.012;2024-02-15T09:07:51;44.60;;;24.02;;
40863;SDS011;26582;47.524;19.012;2024-02-15T09:10:18;44.50;;;24.52;;
40863;SDS011;26582;47.524;19.012;2024-02-15T09:12:44;43.90;;;25.02;;
40863;SDS011;26582;47.524;19.012;2024-02-15T09:15:14;38.88;;;23.25;;
40863;SDS011;26582;47.524;19.012;2024-02-15T09:17:43;46.92;;;24.73;;
40863;SDS011;26582;47.524;19.012;2024-02-15T09:20:11;40.28;;;24.02;;
40863;SDS011;26582;47.524;19.012;2024-02-15T09:22:40;43.20;;;25.42;;
40863;SDS011;26582;47.524;19.012;2024-02-15T09:25:08;43.03;;;24.35;;
40863;SDS011;26582;47.524;19.012;2024-02-15T09:27:35;39.70;;;23.35;;
40863;SDS011;26582;47.524;19.012;2024-02-15T09:30:03;44.85;;;24.10;;
40863;SDS011;26582;47.524;19.012;2024-02-15T09:32:33;40.30;;;24.25;;
40863;SDS011;26582;47.524;19.012;2024-02-15T09:35:02;38.05;;;23.55;;
40863;SDS011;26582;47.524;19.012;2024-02-15T09:37:32;39.40;;;22.98;;
40863;SDS011;26582;47.524;19.012;2024-02-15T09:39:59;42.22;;;24.25;;
40863;SDS011;26582;47.524;19.012;2024-02-15T09:42:31;42.33;;;23.38;;
40863;SDS011;26582;47.524;19.012;2024-02-15T09:45:00;41.13;;;22.75;;
40863;SDS011;26582;47.524;19.012;2024-02-15T09:47:27;43.30;;;22.90;;
40863;SDS011;26582;47.524;19.012;2024-02-15T09:50:00;39.40;;;22.45;;
40863;SDS011;26582;47.524;19.012;2024-02-15T09:52:29;41.17;;;23.75;;
40863;SDS011;26582;47.524;19.012;2024-02-15T09:54:58;41.28;;;24.00;;
40863;SDS011;26582;47.524;19.012;2024-02-15T09:57:26;41.17;;;23.83;;
40863;SDS011;26582;47.524;19.012;2024-02-15T09:59:54;62.97;;;31.98;;
40863;SDS011;26582;47.524;19.012;2024-02-15T10:02:21;42.60;;;24.45;;
40863;SDS011;26582;47.524;19.012;2024-02-15T10:04:49;39.30;;;23.42;;
40863;SDS011;26582;47.524;19.012;2024-02-15T10:07:16;37.67;;;22.00;;
40863;SDS011;26582;47.524;19.012;2024-02-15T10:09:45;40.03;;;23.80;;
40863;SDS011;26582;47.524;19.012;2024-02-15T10:12:11;42.85;;;24.83;;
40863;SDS011;26582;47.524;19.012;2024-02-15T10:14:38;40.05;;;24.83;;
40863;SDS011;26582;47.524;19.012;2024-02-15T10:17:05;38.55;;;22.67;;
40863;SDS011;26582;47.524;19.012;2024-02-15T10:19:34;36.40;;;22.13;;
40863;SDS011;26582;47.524;19.012;2024-02-15T10:22:05;34.20;;;21.17;;
40863;SDS011;26582;47.524;19.012;2024-02-15T10:24:33;31.20;;;20.42;;
40863;SDS011;26582;47.524;19.012;2024-02-15T10:27:01;32.00;;;20.80;;
40863;SDS011;26582;47.524;19.012;2024-02-15T10:29:29;34.65;;;20.25;;
40863;SDS011;26582;47.524;19.012;2024-02-15T10:31:57;34.97;;;20.88;;
40863;SDS011;26582;47.524;19.012;2024-02-15T10:34:24;33.30;;;20.67;;
40863;SDS011;26582;47.524;19.012;2024-02-15T10:36:53;37.13;;;20.35;;
40863;SDS011;26582;47.524;19.012;2024-02-15T10:39:21;33.60;;;19.23;;
40863;SDS011;26582;47.524;19.012;2024-02-15T10:41:49;32.53;;;20.08;;
40863;SDS011;26582;47.524;19.012;2024-02-15T10:44:19;33.08;;;19.75;;
40863;SDS011;26582;47.524;19.012;2024-02-15T10:46:48;31.02;;;19.73;;
40863;SDS011;26582;47.524;19.012;2024-02-15T10:49:17;33.42;;;19.48;;
40863;SDS011;26582;47.524;19.012;2024-02-15T10:51:46;32.88;;;19.83;;
40863;SDS011;26582;47.524;19.012;2024-02-15T10:54:27;36.65;;;20.17;;
40863;SDS011;26582;47.524;19.012;2024-02-15T10:57:06;32.47;;;19.17;;
40863;SDS011;26582;47.524;19.012;2024-02-15T10:59:37;34.20;;;19.90;;
40863;SDS011;26582;47.524;19.012;2024-02-15T11:02:11;34.25;;;19.88;;
40863;SDS011;26582;47.524;19.012;2024-02-15T11:04:53;32.60;;;18.48;;
40863;SDS011;26582;47.524;19.012;2024-02-15T11:07:23;31.20;;;19.25;;
40863;SDS011;26582;47.524;19.012;2024-02-15T11:09:53;33.97;;;19.55;;
40863;SDS011;26582;47.524;19.012;2024-02-15T11:12:21;31.80;;;20.15;;
40863;SDS011;26582;47.524;19.012;2024-02-15T11:14:51;33.50;;;19.27;;
40863;SDS011;26582;47.524;19.012;2024-02-15T11:23:24;30.88;;;18.42;;
40863;SDS011;26582;47.524;19.012;2024-02-15T11:25:53;31.05;;;19.17;;
40863;SDS011;26582;47.524;19.012;2024-02-15T11:28:39;34.72;;;20.50;;
40863;SDS011;26582;47.524;19.012;2024-02-15T11:31:08;33.53;;;18.83;;
40863;SDS011;26582;47.524;19.012;2024-02-15T11:33:37;35.90;;;19.85;;
40863;SDS011;26582;47.524;19.012;2024-02-15T11:36:05;31.65;;;18.90;;
40863;SDS011;26582;47.524;19.012;2024-02-15T11:38:33;30.65;;;18.55;;
40863;SDS011;26582;47.524;19.012;2024-02-15T11:41:01;34.08;;;20.27;;
40863;SDS011;26582;47.524;19.012;2024-02-15T11:46:23;33.85;;;20.20;;
40863;SDS011;26582;47.524;19.012;2024-02-15T11:48:51;35.03;;;20.15;;
40863;SDS011;26582;47.524;19.012;2024-02-15T11:51:26;35.37;;;20.87;;
40863;SDS011;26582;47.524;19.012;2024-02-15T11:54:01;37.50;;;21.13;;
40863;SDS011;26582;47.524;19.012;2024-02-15T11:56:31;33.42;;;20.60;;
40863;SDS011;26582;47.524;19.012;2024-02-15T11:59:03;39.78;;;22.13;;
40863;SDS011;26582;47.524;19.012;2024-02-15T12:01:32;35.97;;;21.55;;
40863;SDS011;26582;47.524;19.012;2024-02-15T12:04:18;38.35;;;21.48;;
40863;SDS011;26582;47.524;19.012;2024-02-15T12:07:02;35.80;;;20.50;;
40863;SDS011;26582;47.524;19.012;2024-02-15T12:09:46;37.25;;;20.88;;
40863;SDS011;26582;47.524;19.012;2024-02-15T12:12:31;33.00;;;19.83;;
40863;SDS011;26582;47.524;19.012;2024-02-15T12:15:15;30.88;;;19.33;;
40863;SDS011;26582;47.524;19.012;2024-02-15T12:18:14;28.80;;;18.73;;
40863;SDS011;26582;47.524;19.012;2024-02-15T12:20:58;35.70;;;21.73;;
40863;SDS011;26582;47.524;19.012;2024-02-15T12:23:26;36.05;;;21.58;;
40863;SDS011;26582;47.524;19.012;2024-02-15T12:25:53;46.17;;;23.13;;
40863;SDS011;26582;47.524;19.012;2024-02-15T12:28:20;35.22;;;20.20;;
40863;SDS011;26582;47.524;19.012;2024-02-15T12:30:47;33.40;;;19.67;;
40863;SDS011;26582;47.524;19.012;2024-02-15T12:33:22;35.33;;;20.52;;
40863;SDS011;26582;47.524;19.012;2024-02-15T12:35:49;37.25;;;21.02;;
40863;SDS011;26582;47.524;19.012;2024-02-15T12:38:16;34.50;;;20.20;;
40863;SDS011;26582;47.524;19.012;2024-02-15T12:40:43;34.50;;;20.40;;
40863;SDS011;26582;47.524;19.012;2024-02-15T12:43:10;33.55;;;21.55;;
40863;SDS011;26582;47.524;19.012;2024-02-15T12:45:38;41.13;;;22.52;;
40863;SDS011;26582;47.524;19.012;2024-02-15T12:48:08;37.65;;;20.42;;
40863;SDS011;26582;47.524;19.012;2024-02-15T12:50:38;33.17;;;19.90;;
40863;SDS011;26582;47.524;19.012;2024-02-15T12:53:05;31.63;;;19.27;;
40863;SDS011;26582;47.524;19.012;2024-02-15T12:55:33;33.08;;;19.38;;
40863;SDS011;26582;47.524;19.012;2024-02-15T12:58:01;30.40;;;17.95;;
40863;SDS011;26582;47.524;19.012;2024-02-15T13:00:33;33.20;;;18.88;;
40863;SDS011;26582;47.524;19.012;2024-02-15T13:03:04;29.80;;;18.38;;
40863;SDS011;26582;47.524;19.012;2024-02-15T13:05:34;32.83;;;18.63;;
40863;SDS011;26582;47.524;19.012;2024-02-15T13:08:02;37.00;;;18.23;;
40863;SDS011;26582;47.524;19.012;2024-02-15T13:10:35;29.65;;;18.30;;
40863;SDS011;26582;47.524;19.012;2024-02-15T13:13:02;26.38;;;17.00;;
40863;SDS011;26582;47.524;19.012;2024-02-15T13:15:29;29.85;;;16.50;;
40863;SDS011;26582;47.524;19.012;2024-02-15T13:17:59;25.35;;;15.75;;
40863;SDS011;26582;47.524;19.012;2024-02-15T13:20:26;26.05;;;16.33;;
40863;SDS011;26582;47.524;19.012;2024-02-15T13:22:57;30.27;;;17.50;;
40863;SDS011;26582;47.524;19.012;2024-02-15T13:25:26;26.50;;;16.63;;
40863;SDS011;26582;47.524;19.012;2024-02-15T13:27:53;30.35;;;18.08;;
40863;SDS011;26582;47.524;19.012;2024-02-15T13:30:20;27.15;;;17.80;;
40863;SDS011;26582;47.524;19.012;2024-02-15T13:32:48;27.90;;;16.88;;
40863;SDS011;26582;47.524;19.012;2024-02-15T13:35:16;31.57;;;17.70;;
40863;SDS011;26582;47.524;19.012;2024-02-15T13:37:46;26.98;;;16.75;;
40863;SDS011;26582;47.524;19.012;2024-02-15T13:40:13;30.27;;;18.17;;
40863;SDS011;26582;47.524;19.012;2024-02-15T13:42:43;31.35;;;17.67;;
40863;SDS011;26582;47.524;19.012;2024-02-15T13:45:15;30.77;;;17.98;;
40863;SDS011;26582;47.524;19.012;2024-02-15T13:47:43;26.58;;;17.00;;
40863;SDS011;26582;47.524;19.012;2024-02-15T13:50:12;30.23;;;17.85;;
40863;SDS011;26582;47.524;19.012;2024-02-15T13:52:39;31.50;;;17.63;;
40863;SDS011;26582;47.524;19.012;2024-02-15T13:55:09;27.60;;;17.88;;
40863;SDS011;26582;47.524;19.012;2024-02-15T13:57:37;29.73;;;17.52;;
40863;SDS011;26582;47.524;19.012;2024-02-15T14:00:06;32.60;;;18.10;;
40863;SDS011;26582;47.524;19.012;2024-02-15T14:02:39;29.00;;;17.85;;
40863;SDS011;26582;47.524;19.012;2024-02-15T14:07:36;29.10;;;16.25;;
40863;SDS011;26582;47.524;19.012;2024-02-15T14:10:04;28.55;;;17.17;;
40863;SDS011;26582;47.524;19.012;2024-02-15T14:12:32;29.70;;;17.42;;
40863;SDS011;26582;47.524;19.012;2024-02-15T14:15:01;43.88;;;23.80;;
40863;SDS011;26582;47.524;19.012;2024-02-15T14:17:32;41.55;;;20.02;;
40863;SDS011;26582;47.524;19.012;2024-02-15T14:19:58;27.40;;;15.05;;
40863;SDS011;26582;47.524;19.012;2024-02-15T14:22:26;28.30;;;16.00;;
40863;SDS011;26582;47.524;19.012;2024-02-15T14:24:54;22.67;;;14.15;;
40863;SDS011;26582;47.524;19.012;2024-02-15T14:27:21;25.52;;;14.82;;
40863;SDS011;26582;47.524;19.012;2024-02-15T14:29:48;25.17;;;14.85;;
40863;SDS011;26582;47.524;19.012;2024-02-15T14:32:28;26.08;;;15.57;;
40863;SDS011;26582;47.524;19.012;2024-02-15T14:35:14;27.10;;;15.10;;
40863;SDS011;26582;47.524;19.012;2024-02-15T14:37:42;31.70;;;15.18;;
40863;SDS011;26582;47.524;19.012;2024-02-15T14:40:09;25.27;;;15.50;;